Terminal Aerodrome Forecast
Issued by NWS

Home | Current Version | Previous Version | Text Only | Print | Product List | Glossary On
Versions: 1 2 3 4 5 6 7 8 9 10 11 12 13 14 15 16 17 18
000
FTUS43 KGRR 280500
TAFMKG
TAF
KMKG 280540Z 2806/2906 27004KT 6SM -SHSN BKN035
     FM281500 16011KT 2SM -SN OVC025
     FM290300 16012KT 2SM -SNPL OVC015=

USA.gov is the U.S. government's official web portal to all federal, state and local government web resources and services.